Time;durP1;ratioP1;P1;durP2;ratioP2;P2;SDS_P1;SDS_P2;PMS_P1;PMS_P2;Temp;Humidity;BMP_temperature;BMP_pressure;BME280_temperature;BME280_humidity;BME280_pressure;Samples;Min_cycle;Max_cycle;Signal;HPM_P1;HPM_P2
2022/03/18 00:02:12;;;;;;;9.95;7.07;;;;;;;7.80;58.54;103301.19;5000450;28;102551;-82
2022/03/18 00:04:39;;;;;;;10.20;7.28;;;;;;;7.79;58.18;103289.53;5006817;28;104010;-81
2022/03/18 00:07:06;;;;;;;7.93;6.30;;;;;;;7.80;58.35;103302.03;5009777;28;102535;-82
2022/03/18 00:09:50;;;;;;;9.75;7.57;;;;;;;7.80;58.31;103318.31;4992156;28;102152;-81
2022/03/18 00:12:18;;;;;;;9.52;7.53;;;;;;;7.80;57.89;103315.59;4996324;28;102213;-82
2022/03/18 00:14:45;;;;;;;8.75;7.13;;;;;;;7.80;57.60;103307.44;4995735;28;104318;-82
2022/03/18 00:17:12;;;;;;;9.98;7.47;;;;;;;7.80;57.56;103304.75;5007891;28;102606;-81
2022/03/18 00:19:40;;;;;;;9.50;6.90;;;;;;;7.80;57.96;103312.88;5007199;28;102956;-80
2022/03/18 00:22:07;;;;;;;10.15;7.75;;;;;;;7.81;57.90;103317.25;4993934;28;102311;-81
2022/03/18 00:24:34;;;;;;;10.50;8.10;;;;;;;7.80;57.89;103317.47;5003756;28;103913;-81
2022/03/18 00:27:03;;;;;;;9.00;7.10;;;;;;;7.80;58.25;103314.75;5011236;28;101859;-81
2022/03/18 00:29:31;;;;;;;8.77;7.10;;;;;;;7.80;58.62;103312.03;5010839;28;102521;-81
2022/03/18 00:31:59;;;;;;;8.55;6.82;;;;;;;7.79;58.59;103324.75;5012830;28;102411;-81
2022/03/18 00:34:27;;;;;;;10.75;7.47;;;;;;;7.79;57.82;103316.63;5010475;28;103982;-81
2022/03/18 00:36:54;;;;;;;9.25;7.20;;;;;;;7.79;57.87;103322.03;5009706;28;103797;-81
2022/03/18 00:39:21;;;;;;;10.13;7.15;;;;;;;7.79;58.23;103319.34;4996044;28;102562;-81
2022/03/18 00:41:48;;;;;;;9.52;6.78;;;;;;;7.79;57.89;103315.75;5007671;28;102446;-81
2022/03/18 00:44:14;;;;;;;8.00;6.72;;;;;;;7.78;58.26;103320.34;5010982;28;104177;-82
2022/03/18 00:46:44;;;;;;;9.63;7.07;;;;;;;7.79;58.28;103308.50;5011572;28;102107;-81
2022/03/18 00:52:06;;;;;;;10.48;6.88;;;;;;;7.79;58.39;103304.91;4993579;28;102584;-81
2022/03/18 00:54:34;;;;;;;8.57;6.47;;;;;;;7.78;57.85;103309.50;4991557;28;104331;-81
2022/03/18 00:57:01;;;;;;;8.35;6.57;;;;;;;7.79;57.67;103308.50;4986418;28;102545;-82
2022/03/18 00:59:28;;;;;;;8.45;6.90;;;;;;;7.79;57.78;103311.22;5010092;28;102468;-81
2022/03/18 01:01:56;;;;;;;7.80;7.00;;;;;;;7.78;57.50;103304.09;4995338;28;102272;-82
2022/03/18 01:04:24;;;;;;;7.85;7.03;;;;;;;7.78;57.92;103300.53;5010562;28;103924;-82
2022/03/18 01:06:54;;;;;;;9.07;7.43;;;;;;;7.78;57.76;103309.50;5012206;28;102000;-81
2022/03/18 01:09:22;;;;;;;7.85;6.55;;;;;;;7.77;58.20;103310.53;5011383;28;102617;-82
2022/03/18 01:12:06;;;;;;;7.72;6.63;;;;;;;7.77;58.32;103307.00;4993690;28;102225;-82
2022/03/18 01:14:33;;;;;;;8.80;6.78;;;;;;;7.76;57.41;103298.03;5001716;28;104032;-81
2022/03/18 01:17:01;;;;;;;9.00;6.82;;;;;;;7.77;57.65;103296.97;5016143;28;101963;-82
2022/03/18 01:19:27;;;;;;;9.43;7.20;;;;;;;7.76;58.36;103295.31;5015268;28;102397;-81
2022/03/18 01:21:54;;;;;;;7.70;6.43;;;;;;;7.75;58.43;103299.03;5016489;28;102438;-81
2022/03/18 01:24:20;;;;;;;8.55;6.95;;;;;;;7.76;57.80;103300.72;5013532;28;103958;-81
2022/03/18 01:26:47;;;;;;;8.02;6.63;;;;;;;7.76;57.89;103299.91;5014237;28;102631;-82
2022/03/18 01:29:13;;;;;;;8.13;6.40;;;;;;;7.77;57.88;103307.81;5012522;28;102514;-82
2022/03/18 01:31:40;;;;;;;7.80;6.95;;;;;;;7.76;57.97;103311.56;5016324;28;102455;-81
2022/03/18 01:34:08;;;;;;;9.20;7.05;;;;;;;7.75;58.11;103309.88;5011834;28;103863;-81
2022/03/18 01:36:34;;;;;;;7.55;6.30;;;;;;;7.75;58.06;103314.47;5015619;28;101999;-81
2022/03/18 01:39:01;;;;;;;7.75;6.53;;;;;;;7.75;57.83;103311.75;5014953;28;102264;-80
2022/03/18 01:41:27;;;;;;;8.05;7.03;;;;;;;7.76;58.17;103316.16;5016307;28;102023;-80
2022/03/18 01:43:54;;;;;;;8.23;7.03;;;;;;;7.76;57.72;103316.16;5012498;28;103822;-80
2022/03/18 01:46:21;;;;;;;7.60;6.10;;;;;;;7.76;58.68;103322.41;5016299;28;102396;-81
2022/03/18 01:48:48;;;;;;;8.70;6.38;;;;;;;7.75;57.78;103326.13;5014226;28;102925;-81
2022/03/18 01:51:16;;;;;;;8.55;6.80;;;;;;;7.75;58.37;103328.00;5016701;28;102361;-81
2022/03/18 01:53:44;;;;;;;7.43;6.22;;;;;;;7.74;57.45;103329.06;5013528;28;103945;-81
2022/03/18 01:56:13;;;;;;;9.02;6.68;;;;;;;7.75;57.89;103336.97;5015872;28;102293;-81
2022/03/18 01:58:40;;;;;;;7.78;6.53;;;;;;;7.75;58.09;103338.84;5013677;28;102611;-81
2022/03/18 02:01:06;;;;;;;8.38;6.28;;;;;;;7.74;57.74;103343.44;5016113;28;102566;-81
2022/03/18 02:03:34;;;;;;;7.47;6.32;;;;;;;7.75;57.29;103347.00;5013042;28;104100;-81
2022/03/18 02:06:01;;;;;;;8.30;6.55;;;;;;;7.75;57.82;103347.81;5014332;28;102435;-81
2022/03/18 02:08:34;;;;;;;7.15;6.43;;;;;;;7.74;58.26;103346.16;5014629;28;102359;-81
2022/03/18 02:11:22;;;;;;;7.35;6.38;;;;;;;7.73;57.68;103347.19;5015350;28;103050;-81
2022/03/18 02:14:08;;;;;;;9.10;6.43;;;;;;;7.73;58.28;103349.91;5011335;28;104873;-81
2022/03/18 02:16:38;;;;;;;7.00;6.05;;;;;;;7.73;58.24;103349.06;5015042;28;102389;-81
2022/03/18 02:19:06;;;;;;;7.60;6.55;;;;;;;7.73;58.06;103360.75;5013348;28;102244;-81
2022/03/18 02:21:35;;;;;;;7.28;6.30;;;;;;;7.72;57.63;103364.50;4999343;28;102305;-81
2022/03/18 02:24:04;;;;;;;7.68;6.78;;;;;;;7.72;57.86;103364.50;4997042;28;104123;-81
2022/03/18 02:26:32;;;;;;;8.68;6.30;;;;;;;7.72;58.14;103369.91;5007029;28;101786;-81
2022/03/18 02:28:58;;;;;;;7.30;6.45;;;;;;;7.71;57.54;103368.22;5013619;28;101935;-81
2022/03/18 02:31:28;;;;;;;6.07;5.25;;;;;;;7.70;57.76;103361.13;5001104;28;102589;-80
2022/03/18 02:33:55;;;;;;;7.93;6.70;;;;;;;7.69;57.85;103375.72;4995339;28;103492;-82
2022/03/18 02:36:21;;;;;;;6.47;5.75;;;;;;;7.70;58.42;103366.53;5014850;28;102107;-82
2022/03/18 02:38:48;;;;;;;7.30;5.93;;;;;;;7.69;58.49;103375.72;5006615;28;102685;-82
2022/03/18 02:41:16;;;;;;;7.82;6.28;;;;;;;7.68;58.08;103380.28;5011197;28;102274;-82
2022/03/18 02:43:42;;;;;;;7.68;5.88;;;;;;;7.68;58.15;103385.72;5007277;28;104019;-81
2022/03/18 02:46:09;;;;;;;7.20;6.40;;;;;;;7.67;58.31;103372.31;5014986;28;102392;-81
2022/03/18 02:48:36;;;;;;;8.07;6.40;;;;;;;7.67;58.22;103386.72;5004004;28;102377;-81
2022/03/18 02:51:03;;;;;;;7.05;6.15;;;;;;;7.66;57.96;103378.78;4994647;28;101995;-81
2022/03/18 02:53:30;;;;;;;7.63;6.15;;;;;;;7.66;57.48;103387.75;4993286;28;103969;-81
2022/03/18 02:55:56;;;;;;;6.40;5.72;;;;;;;7.67;58.01;103380.47;5013786;28;102020;-81
2022/03/18 02:58:24;;;;;;;8.70;6.05;;;;;;;7.66;57.52;103385.03;5012290;28;103243;-81
2022/03/18 03:00:51;;;;;;;7.05;5.90;;;;;;;7.66;58.26;103381.50;5014473;28;102462;-81
2022/03/18 03:03:18;;;;;;;7.88;5.82;;;;;;;7.66;57.64;103381.50;4995314;28;103884;-81
2022/03/18 03:08:31;;;;;;;7.95;6.15;;;;;;;7.64;57.64;103394.38;5013085;28;102406;-81
2022/03/18 03:10:58;;;;;;;7.65;6.50;;;;;;;7.64;57.48;103394.38;5014817;28;102101;-81
2022/03/18 03:13:28;;;;;;;6.40;5.70;;;;;;;7.64;58.43;103388.97;5012908;28;103954;-81
2022/03/18 03:15:56;;;;;;;6.72;6.03;;;;;;;7.64;57.65;103394.38;5012758;28;102013;-81
2022/03/18 03:18:22;;;;;;;6.63;5.88;;;;;;;7.63;57.88;103396.25;5013695;28;102437;-81
2022/03/18 03:20:49;;;;;;;7.97;6.25;;;;;;;7.63;58.64;103403.53;5014816;28;102060;-81
2022/03/18 03:23:16;;;;;;;7.35;6.10;;;;;;;7.62;57.31;103399.16;5013705;28;103019;-81
2022/03/18 03:25:42;;;;;;;8.27;6.10;;;;;;;7.63;57.43;103403.53;4995443;28;102544;-81
2022/03/18 03:28:09;;;;;;;8.10;5.75;;;;;;;7.63;57.83;103403.53;5013687;28;102561;-81
2022/03/18 03:30:37;;;;;;;6.90;5.65;;;;;;;7.61;57.56;103403.75;5013983;28;102222;-81
2022/03/18 03:33:04;;;;;;;5.68;4.75;;;;;;;7.62;57.28;103401.88;5013440;28;103881;-80
2022/03/18 03:35:32;;;;;;;6.78;5.72;;;;;;;7.62;58.11;103405.41;5013511;28;102159;-81
2022/03/18 03:37:58;;;;;;;7.90;6.00;;;;;;;7.62;57.50;103401.88;4994178;28;102598;-81
2022/03/18 03:40:24;;;;;;;7.63;5.93;;;;;;;7.62;57.96;103404.59;5014779;28;102401;-81
2022/03/18 03:42:52;;;;;;;7.40;6.07;;;;;;;7.62;57.67;103401.88;5013160;28;103905;-82
2022/03/18 03:45:20;;;;;;;7.18;5.80;;;;;;;7.62;57.53;103396.44;5013936;28;102233;-81
2022/03/18 03:47:48;;;;;;;7.88;6.28;;;;;;;7.61;57.93;103401.03;5014027;28;102358;-81
2022/03/18 03:50:15;;;;;;;8.20;5.85;;;;;;;7.62;57.71;103401.88;4996286;28;104132;-81
2022/03/18 03:52:44;;;;;;;5.88;4.68;;;;;;;7.62;57.38;103396.44;5013382;28;103058;-81
2022/03/18 03:55:12;;;;;;;6.93;5.70;;;;;;;7.61;58.10;103401.03;5014456;28;102468;-81
2022/03/18 03:57:41;;;;;;;7.90;6.07;;;;;;;7.62;57.81;103408.13;5015734;28;101919;-80
2022/03/18 04:00:09;;;;;;;7.07;5.97;;;;;;;7.62;58.07;103408.13;5015739;28;102879;-81
2022/03/18 04:02:37;;;;;;;7.55;6.15;;;;;;;7.62;58.09;103418.97;5015114;28;103933;-81
2022/03/18 04:05:07;;;;;;;7.05;6.28;;;;;;;7.62;57.80;103418.13;5015179;28;102362;-82
2022/03/18 04:07:35;;;;;;;7.43;6.28;;;;;;;7.62;57.64;103424.38;5015190;28;102540;-82
2022/03/18 04:10:02;;;;;;;7.25;6.03;;;;;;;7.62;57.57;103428.97;5014949;28;102612;-82
2022/03/18 04:12:29;;;;;;;6.72;6.03;;;;;;;7.61;58.14;103432.69;5013994;28;103166;-82
2022/03/18 04:14:57;;;;;;;7.72;6.40;;;;;;;7.61;57.68;103436.25;5014253;28;101944;-83
2022/03/18 04:17:26;;;;;;;7.32;6.45;;;;;;;7.62;58.63;103439.81;5014537;28;102357;-81
2022/03/18 04:19:54;;;;;;;7.80;6.40;;;;;;;7.61;57.56;103440.81;5006004;28;102456;-81
2022/03/18 04:22:22;;;;;;;8.40;6.85;;;;;;;7.61;57.99;103443.53;5005043;28;103940;-81
2022/03/18 04:24:49;;;;;;;8.80;6.47;;;;;;;7.61;58.19;103454.38;5010860;28;102051;-81
2022/03/18 04:27:15;;;;;;;6.93;5.90;;;;;;;7.59;57.63;103451.84;4997761;28;102295;-81
2022/03/18 04:29:41;;;;;;;8.93;6.78;;;;;;;7.60;57.99;103460.81;5013623;28;102185;-81
2022/03/18 04:32:09;;;;;;;7.25;6.55;;;;;;;7.61;57.54;103459.78;4998267;28;103831;-81
2022/03/18 04:34:36;;;;;;;8.32;6.57;;;;;;;7.59;58.58;103468.13;4992629;28;102276;-81
2022/03/18 04:37:03;;;;;;;7.13;6.40;;;;;;;7.59;58.05;103468.13;5010324;28;102042;-81
2022/03/18 04:39:31;;;;;;;8.20;6.65;;;;;;;7.60;57.71;103479.78;5011096;28;102314;-81
2022/03/18 04:41:58;;;;;;;8.30;5.80;;;;;;;7.61;57.58;103481.47;4991204;28;102963;-82
2022/03/18 04:44:24;;;;;;;8.13;6.72;;;;;;;7.62;58.17;103488.59;5001346;28;102054;-82
2022/03/18 04:46:51;;;;;;;8.25;6.95;;;;;;;7.60;57.33;103485.22;5010329;28;102562;-81
2022/03/18 04:49:18;;;;;;;8.43;6.72;;;;;;;7.60;57.03;103485.22;5011881;27;102550;-82
2022/03/18 04:51:44;;;;;;;7.43;6.20;;;;;;;7.60;58.17;103485.22;5014411;28;103876;-82
2022/03/18 04:54:11;;;;;;;7.65;6.85;;;;;;;7.60;57.55;103487.94;5015538;28;102449;-82
2022/03/18 04:59:25;;;;;;;8.95;6.55;;;;;;;7.59;57.76;103491.69;5015320;28;102405;-82
2022/03/18 05:01:53;;;;;;;9.75;7.10;;;;;;;7.59;58.65;103486.25;5013605;28;104286;-81
2022/03/18 05:04:20;;;;;;;8.23;6.80;;;;;;;7.59;58.13;103494.38;5015769;28;101840;-82
2022/03/18 05:06:47;;;;;;;9.95;6.90;;;;;;;7.58;57.97;103498.97;5014224;28;102419;-81
2022/03/18 05:09:17;;;;;;;8.07;6.85;;;;;;;7.59;58.05;103499.81;5014647;28;102848;-81
2022/03/18 05:11:45;;;;;;;8.02;6.57;;;;;;;7.58;58.39;103498.13;5014794;28;103955;-82
2022/03/18 05:14:11;;;;;;;7.55;6.75;;;;;;;7.56;58.37;103506.44;5015251;28;102077;-82
2022/03/18 05:16:42;;;;;;;8.17;6.53;;;;;;;7.57;58.12;103501.84;5014469;28;102399;-81
2022/03/18 05:19:09;;;;;;;9.30;6.45;;;;;;;7.56;58.03;103516.44;5016204;28;102100;-81
2022/03/18 05:21:35;;;;;;;9.20;7.18;;;;;;;7.56;57.87;103511.84;5013800;28;103857;-82
2022/03/18 05:24:06;;;;;;;8.43;6.68;;;;;;;7.56;57.66;103511.00;5015432;28;102362;-81
2022/03/18 05:26:33;;;;;;;9.48;7.40;;;;;;;7.55;57.98;103514.75;5013860;28;102677;-81
2022/03/18 05:29:02;;;;;;;7.55;6.72;;;;;;;7.56;58.07;103521.84;5016416;28;102596;-81
2022/03/18 05:31:31;;;;;;;7.90;6.88;;;;;;;7.55;57.26;103526.44;5014446;28;104023;-80
2022/03/18 05:33:58;;;;;;;8.48;7.00;;;;;;;7.55;57.17;103520.16;5014331;28;102562;-81
2022/03/18 05:36:24;;;;;;;9.43;7.35;;;;;;;7.54;57.62;103530.16;5014201;28;101926;-81
2022/03/18 05:38:51;;;;;;;8.20;6.80;;;;;;;7.53;58.11;103523.03;5014780;28;102164;-81
2022/03/18 05:41:17;;;;;;;11.18;7.28;;;;;;;7.54;57.68;103529.34;4995413;28;104074;-82
2022/03/18 05:43:44;;;;;;;9.80;6.80;;;;;;;7.54;57.78;103535.59;5014654;28;102501;-81
2022/03/18 05:46:12;;;;;;;8.05;6.88;;;;;;;7.53;58.53;103530.34;5014038;28;102179;-81
2022/03/18 05:48:38;;;;;;;9.45;7.65;;;;;;;7.53;57.56;103533.03;5015931;28;102260;-82
2022/03/18 05:51:05;;;;;;;9.13;6.97;;;;;;;7.52;57.47;103531.38;5013580;28;104002;-82
2022/03/18 05:53:32;;;;;;;7.80;7.00;;;;;;;7.51;57.54;103535.94;5014928;28;101933;-81
2022/03/18 05:58:44;;;;;;;8.75;6.95;;;;;;;7.47;58.18;103540.88;5016080;28;102512;-81
2022/03/18 06:01:12;;;;;;;8.50;6.95;;;;;;;7.49;57.33;103543.41;5012441;28;103875;-81
2022/03/18 06:03:39;;;;;;;11.00;7.38;;;;;;;7.48;57.85;103558.00;5015218;28;102389;-81
2022/03/18 06:06:05;;;;;;;9.02;7.30;;;;;;;7.44;57.61;103556.66;5013200;28;102362;-81
2022/03/18 06:14:03;;;;;;;8.98;7.50;;;;;;;7.44;58.25;103551.25;5004021;28;102519;-83
2022/03/18 06:16:31;;;;;;;8.48;6.88;;;;;;;7.43;57.69;103561.25;5013826;28;102318;-82
2022/03/18 06:18:58;;;;;;;8.73;7.07;;;;;;;7.38;56.96;103558.22;5013364;28;102237;-82
2022/03/18 06:21:24;;;;;;;10.20;7.05;;;;;;;7.39;57.70;103559.94;5010586;28;104059;-82
2022/03/18 06:23:51;;;;;;;10.43;6.90;;;;;;;7.42;58.15;103566.84;5010604;28;102179;-81
2022/03/18 06:26:18;;;;;;;9.48;7.68;;;;;;;7.40;57.74;103561.59;5009844;28;102037;-82
2022/03/18 06:28:44;;;;;;;9.70;7.65;;;;;;;7.41;57.43;103568.69;4988394;28;102142;-81
2022/03/18 06:31:11;;;;;;;9.15;7.13;;;;;;;7.42;57.20;103570.38;5012415;28;103904;-82
2022/03/18 06:33:44;;;;;;;10.00;6.95;;;;;;;7.43;58.09;103571.25;5013652;28;102245;-83
2022/03/18 06:36:11;;;;;;;9.88;7.03;;;;;;;7.41;57.35;103566.00;5006711;28;101924;-82
2022/03/18 06:38:38;;;;;;;8.68;6.80;;;;;;;7.42;57.18;103564.97;5005102;28;102427;-82
2022/03/18 06:41:05;;;;;;;9.65;7.03;;;;;;;7.41;57.28;103563.28;5000096;28;103900;-82
2022/03/18 06:43:31;;;;;;;10.73;7.43;;;;;;;7.41;57.69;103568.69;5002238;28;102440;-82
2022/03/18 06:45:59;;;;;;;9.43;7.05;;;;;;;7.43;58.05;103576.66;4992720;28;102084;-82
2022/03/18 06:48:25;;;;;;;10.60;6.65;;;;;;;7.41;57.39;103574.13;5000157;28;102188;-82
2022/03/18 06:50:54;;;;;;;10.27;7.13;;;;;;;7.42;58.12;103575.81;5005111;28;103776;-82
2022/03/18 06:53:20;;;;;;;9.85;7.13;;;;;;;7.41;57.02;103573.28;5013652;28;102458;-82
2022/03/18 06:55:47;;;;;;;10.70;7.60;;;;;;;7.38;57.31;103577.19;5013187;28;102494;-82
2022/03/18 06:58:13;;;;;;;9.52;7.25;;;;;;;7.39;57.69;103587.03;5015027;28;102211;-81
2022/03/18 07:00:40;;;;;;;7.80;6.38;;;;;;;7.40;57.69;103587.88;5013234;28;103870;-81
2022/03/18 07:03:06;;;;;;;8.57;6.90;;;;;;;7.38;57.65;103595.31;4997480;28;102079;-83
2022/03/18 07:05:33;;;;;;;11.20;6.63;;;;;;;7.34;57.74;103573.16;4992948;28;102572;-82
2022/03/18 07:08:01;;;;;;;9.57;6.82;;;;;;;7.36;57.06;103587.38;5002837;28;102432;-82
2022/03/18 07:10:27;;;;;;;8.25;6.60;;;;;;;7.34;57.39;103575.03;5012695;28;104079;-82
2022/03/18 07:12:55;;;;;;;9.00;7.25;;;;;;;7.35;57.63;103569.41;5013416;28;102436;-82
2022/03/18 07:15:21;;;;;;;9.48;6.68;;;;;;;7.35;57.26;103577.53;5012085;28;102530;-81
2022/03/18 07:18:00;;;;;;;7.90;6.80;;;;;;;7.34;57.32;103578.56;5014273;28;102302;-83
2022/03/18 07:20:28;;;;;;;9.50;7.30;;;;;;;7.34;57.18;103570.44;5013404;28;104084;-82
2022/03/18 07:23:04;;;;;;;8.38;7.25;;;;;;;7.34;57.24;103583.16;5014060;28;102308;-82
2022/03/18 07:25:32;;;;;;;9.77;7.32;;;;;;;7.35;57.41;103564.00;5018601;28;102249;-83
2022/03/18 07:27:59;;;;;;;9.90;7.45;;;;;;;7.35;57.44;103579.41;5014931;28;102130;-83
2022/03/18 07:30:25;;;;;;;9.05;7.22;;;;;;;7.34;57.62;103570.44;5013461;28;103482;-82
2022/03/18 07:32:52;;;;;;;9.73;7.30;;;;;;;7.35;57.23;103565.88;5014112;28;102259;-82
2022/03/18 07:35:19;;;;;;;8.13;6.78;;;;;;;7.33;57.76;103570.63;5012707;28;102109;-82
2022/03/18 07:37:48;;;;;;;9.63;7.43;;;;;;;7.34;57.49;103567.75;5014815;28;102074;-81
2022/03/18 07:40:17;;;;;;;11.32;7.28;;;;;;;7.33;57.62;103566.06;5012772;28;103736;-82
2022/03/18 07:42:44;;;;;;;11.02;7.32;;;;;;;7.33;57.21;103576.91;5013300;28;101950;-82
2022/03/18 07:45:12;;;;;;;10.13;7.57;;;;;;;7.34;57.44;103578.56;5012156;28;102000;-82
2022/03/18 07:47:39;;;;;;;9.27;7.77;;;;;;;7.34;57.65;103583.16;5013703;28;102157;-82
2022/03/18 07:50:06;;;;;;;9.63;6.70;;;;;;;7.33;56.80;103579.59;5012426;28;104178;-82
2022/03/18 07:52:33;;;;;;;10.40;7.97;;;;;;;7.34;56.38;103573.16;5013223;28;102529;-82
2022/03/18 07:55:00;;;;;;;10.25;7.88;;;;;;;7.35;57.65;103579.41;5012762;28;102291;-82
2022/03/18 07:57:28;;;;;;;8.95;7.00;;;;;;;7.35;57.40;103574.84;5013479;28;102580;-82
2022/03/18 07:59:55;;;;;;;9.97;7.60;;;;;;;7.35;57.04;103582.13;5012509;28;103923;-82
2022/03/18 08:02:42;;;;;;;10.02;7.43;;;;;;;7.35;57.33;103576.69;5013309;28;102368;-81
2022/03/18 08:05:09;;;;;;;11.15;7.70;;;;;;;7.34;57.05;103581.28;4993390;28;124357;-82
2022/03/18 08:07:56;;;;;;;11.68;8.00;;;;;;;7.33;58.01;103587.72;5014035;28;102784;-82
2022/03/18 08:10:22;;;;;;;9.75;7.80;;;;;;;7.33;58.01;103587.72;5015898;28;133592;-82
2022/03/18 08:12:51;;;;;;;9.80;8.23;;;;;;;7.32;57.93;103580.63;5031639;28;110947;-81
2022/03/18 08:15:20;;;;;;;12.35;9.43;;;;;;;7.34;56.81;103584.00;5021443;28;102425;-80
2022/03/18 08:17:52;;;;;;;10.15;7.70;;;;;;;7.34;57.23;103586.69;5009231;28;102377;-83
2022/03/18 08:20:19;;;;;;;10.02;7.03;;;;;;;7.33;57.96;103582.31;5009744;28;103903;-83
2022/03/18 08:22:47;;;;;;;10.60;8.00;;;;;;;7.34;56.49;103589.41;5010746;28;102321;-82
2022/03/18 08:25:14;;;;;;;11.23;8.38;;;;;;;7.34;56.71;103578.56;5014194;28;102604;-82
2022/03/18 08:27:41;;;;;;;10.32;8.10;;;;;;;7.35;56.99;103591.09;5004209;28;102255;-82
2022/03/18 08:30:11;;;;;;;11.07;8.30;;;;;;;7.35;57.17;103593.78;4995467;28;105488;-81
2022/03/18 08:32:39;;;;;;;9.93;7.40;;;;;;;7.35;57.31;103601.09;5013674;28;102557;-82
2022/03/18 08:35:07;;;;;;;9.65;7.57;;;;;;;7.35;56.95;103604.63;5012878;28;102088;-84
2022/03/18 08:40:19;;;;;;;9.90;7.50;;;;;;;7.35;56.93;103588.38;5004324;28;104113;-81
2022/03/18 08:42:46;;;;;;;11.27;7.90;;;;;;;7.35;56.97;103603.78;5012557;28;102150;-81
2022/03/18 08:45:14;;;;;;;10.05;8.05;;;;;;;7.35;56.96;103601.09;5014005;28;102541;-82
2022/03/18 08:47:40;;;;;;;8.38;7.50;;;;;;;7.33;56.65;103593.16;5015423;28;102442;-82
2022/03/18 08:50:08;;;;;;;9.25;7.90;;;;;;;7.35;56.88;103592.97;5013824;28;104047;-81
2022/03/18 08:52:35;;;;;;;8.10;7.30;;;;;;;7.36;56.89;103603.63;5012602;28;102505;-82
2022/03/18 09:01:49;;;;;;;9.73;7.65;;;;;;;7.35;57.01;103607.34;5008018;28;103728;-80
2022/03/18 09:04:16;;;;;;;10.67;7.83;;;;;;;7.36;56.95;103597.38;5009988;28;102434;-81
2022/03/18 09:06:43;;;;;;;10.90;7.85;;;;;;;7.36;57.05;103606.34;5014237;28;102650;-82
2022/03/18 09:09:11;;;;;;;8.37;6.27;;;;;;;7.35;57.34;103596.50;5015172;28;102523;-82
2022/03/18 09:11:38;;;;;;;9.25;7.82;;;;;;;7.36;56.72;103595.50;5012158;28;104403;-81
2022/03/18 09:14:04;;;;;;;10.32;7.65;;;;;;;7.36;56.76;103597.38;5013747;28;102573;-81
2022/03/18 09:16:36;;;;;;;9.30;7.35;;;;;;;7.35;57.22;103593.78;5012070;28;102897;-81
2022/03/18 09:19:04;;;;;;;9.32;7.50;;;;;;;7.37;57.23;103599.91;5012497;28;103069;-82
2022/03/18 09:21:31;;;;;;;11.10;7.77;;;;;;;7.35;57.35;103596.50;5013190;28;104091;-80
2022/03/18 09:23:58;;;;;;;9.48;8.20;;;;;;;7.35;57.16;103598.38;5013997;28;102024;-80
2022/03/18 09:26:24;;;;;;;10.65;7.90;;;;;;;7.32;56.54;103598.72;5015295;28;102277;-81
2022/03/18 09:28:51;;;;;;;10.20;8.10;;;;;;;7.33;56.41;103593.16;5013944;28;102192;-80
2022/03/18 09:31:18;;;;;;;38.25;9.45;;;;;;;7.33;55.60;103609.41;5014017;28;103959;-80
2022/03/18 09:33:46;;;;;;;10.43;7.22;;;;;;;7.28;55.35;103611.78;5012187;28;102728;-80
2022/03/18 09:36:18;;;;;;;9.88;7.80;;;;;;;7.28;56.69;103606.38;5014829;28;104011;-80
2022/03/18 09:38:47;;;;;;;9.48;6.75;;;;;;;7.31;56.61;103611.44;5014769;28;102287;-80
2022/03/18 09:41:14;;;;;;;9.18;6.68;;;;;;;7.31;55.92;103610.59;5014140;28;103878;-81
2022/03/18 09:43:41;;;;;;;10.05;7.22;;;;;;;7.32;55.97;103607.72;5013485;28;102281;-80
2022/03/18 09:46:10;;;;;;;11.45;7.43;;;;;;;7.33;56.38;103608.56;4995925;28;102074;-79
2022/03/18 09:48:37;;;;;;;9.57;7.20;;;;;;;7.33;56.31;103609.41;5013729;28;102336;-80
2022/03/18 09:51:04;;;;;;;10.38;7.10;;;;;;;7.34;55.56;103616.50;5014715;28;104021;-80
2022/03/18 09:53:34;;;;;;;10.30;7.43;;;;;;;7.33;56.23;103603.16;5014680;28;102073;-80
2022/03/18 09:56:01;;;;;;;12.00;7.40;;;;;;;7.32;56.14;103613.16;5014533;28;102018;-81
2022/03/18 09:58:27;;;;;;;8.82;6.80;;;;;;;7.32;56.99;103623.13;5014290;28;102153;-81
2022/03/18 10:01:01;;;;;;;9.32;7.43;;;;;;;7.31;56.53;103600.59;5009113;28;103929;-80
2022/03/18 10:03:37;;;;;;;8.63;6.68;;;;;;;7.33;56.51;103595.03;5010116;28;102197;-79
2022/03/18 10:06:05;;;;;;;9.20;7.05;;;;;;;7.33;55.60;103604.00;5011835;28;102414;-79
2022/03/18 10:11:30;;;;;;;8.52;7.47;;;;;;;7.29;56.48;103605.38;5038433;27;102008;-50
2022/03/18 10:14:00;;;;;;;10.07;6.75;;;;;;;7.31;55.74;103597.88;5031019;27;102390;-50
2022/03/18 10:16:32;;;;;;;9.85;7.38;;;;;;;7.30;56.01;103609.75;5023079;27;103930;-50
2022/03/18 10:19:00;;;;;;;9.45;7.47;;;;;;;7.29;55.83;103597.25;5029388;27;102068;-50
2022/03/18 10:21:31;;;;;;;8.52;6.90;;;;;;;7.31;56.55;103611.44;5027564;27;102345;-50
2022/03/18 10:24:04;;;;;;;8.18;6.63;;;;;;;7.30;56.52;103612.47;5028907;28;102740;-49
2022/03/18 10:26:37;;;;;;;8.32;6.47;;;;;;;7.27;56.08;103612.81;5025587;28;103868;-50
2022/03/18 10:29:05;;;;;;;10.48;6.72;;;;;;;7.28;56.60;103611.78;5013400;28;102262;-50
2022/03/18 10:31:32;;;;;;;8.77;6.95;;;;;;;7.28;55.78;103600.13;5022367;28;102399;-50
2022/03/18 10:37:06;;;;;;;10.18;7.47;;;;;;;7.30;56.47;103611.63;5019747;28;103963;-50
2022/03/18 10:39:34;;;;;;;9.43;7.53;;;;;;;7.28;56.17;103617.22;5026199;27;102266;-50
2022/03/18 10:42:05;;;;;;;8.07;6.68;;;;;;;7.27;55.57;103606.56;5001921;27;102429;-50
2022/03/18 10:44:45;;;;;;;8.32;7.03;;;;;;;7.27;56.51;103604.69;4992653;28;102427;-50
2022/03/18 10:47:27;;;;;;;12.45;7.00;;;;;;;7.28;56.97;103617.22;4997723;28;104038;-50
2022/03/18 10:50:14;;;;;;;9.18;6.35;;;;;;;7.28;56.58;103611.78;5003513;28;102706;-49
2022/03/18 10:53:01;;;;;;;9.10;6.53;;;;;;;7.29;56.88;103618.91;4991543;28;102005;-50
2022/03/18 10:55:30;;;;;;;10.75;7.38;;;;;;;7.27;55.14;103614.69;4997204;28;102560;-49
2022/03/18 10:58:00;;;;;;;12.65;6.72;;;;;;;7.27;55.88;103593.84;5005646;28;103907;-49
2022/03/18 11:00:29;;;;;;;8.90;6.15;;;;;;;7.26;56.67;103600.31;5006416;28;102009;-49
2022/03/18 11:02:58;;;;;;;8.95;7.05;;;;;;;7.22;55.18;103601.69;4993636;28;102524;-49
2022/03/18 11:05:26;;;;;;;10.48;6.93;;;;;;;7.22;55.26;103601.69;4998513;28;102488;-51
2022/03/18 11:07:54;;;;;;;11.43;7.35;;;;;;;7.22;55.54;103607.09;5005232;28;103772;-49
2022/03/18 11:13:12;;;;;;;10.65;6.88;;;;;;;7.29;55.88;103607.25;4989092;28;102617;-49
2022/03/18 11:15:43;;;;;;;8.73;7.07;;;;;;;7.29;56.13;103608.09;5006633;28;102171;-50
2022/03/18 11:18:11;;;;;;;;;;;;;;;7.29;55.92;103599.97;5004462;28;104079;-50
2022/03/18 11:20:45;;;;;;;8.93;7.40;;;;;;;7.30;56.34;103607.06;5005053;28;102092;-49
2022/03/18 11:23:16;;;;;;;9.20;6.57;;;;;;;7.32;55.99;103596.88;4991404;28;102110;-49
2022/03/18 11:25:45;;;;;;;8.75;6.50;;;;;;;7.32;56.53;103596.88;4990266;28;104114;-50
2022/03/18 11:28:16;;;;;;;9.73;7.20;;;;;;;7.32;55.34;103602.31;4990830;28;104072;-50
2022/03/18 11:30:44;;;;;;;8.60;7.10;;;;;;;7.32;55.55;103591.47;4977712;28;101943;-50
2022/03/18 11:33:20;;;;;;;10.43;7.13;;;;;;;7.33;55.98;103581.47;4991750;28;102735;-50
2022/03/18 11:36:14;;;;;;;8.60;6.25;;;;;;;7.33;56.97;103587.72;4994440;28;102353;-50
2022/03/18 11:38:59;;;;;;;12.25;7.00;;;;;;;7.33;56.08;103590.44;4991180;28;103995;-50
2022/03/18 11:41:43;;;;;;;8.60;6.47;;;;;;;7.34;56.22;103600.25;4993154;28;102279;-50
2022/03/18 11:44:52;;;;;;;8.80;6.80;;;;;;;7.32;56.12;103607.72;4991697;28;102634;-49
2022/03/18 11:47:39;;;;;;;9.17;7.27;;;;;;;7.33;56.33;103601.28;4974497;28;102603;-50
2022/03/18 11:50:35;;;;;;;8.70;6.70;;;;;;;7.35;56.36;103590.25;4972417;28;103810;-50
2022/03/18 11:53:02;;;;;;;9.10;7.22;;;;;;;7.34;56.15;103594.81;4981193;28;102108;-50
2022/03/18 11:55:34;;;;;;;9.35;6.95;;;;;;;7.34;56.13;103594.81;4990373;28;102458;-50
2022/03/18 11:58:01;;;;;;;8.32;6.95;;;;;;;7.34;55.86;103588.56;4981860;28;102186;-50
2022/03/18 12:00:43;;;;;;;7.80;6.40;;;;;;;7.34;56.42;103581.28;4971115;28;103933;-50
2022/03/18 12:03:21;;;;;;;8.73;6.72;;;;;;;7.34;56.38;103594.00;4974329;28;102073;-50
2022/03/18 12:05:56;;;;;;;8.57;7.22;;;;;;;7.34;56.00;103572.31;4972257;28;102413;-50
2022/03/18 12:08:58;;;;;;;7.60;6.50;;;;;;;7.34;56.48;103569.59;4989542;28;102383;-50